Time;durP1;ratioP1;P1;durP2;ratioP2;P2;SDS_P1;SDS_P2;PMS_P1;PMS_P2;Temp;Humidity;BMP_temperature;BMP_pressure;BME280_temperature;BME280_humidity;BME280_pressure;Samples;Min_cycle;Max_cycle;Signal;HPM_P1;HPM_P2
2021/04/06 00:01:15;;;;;;;1.03;0.73;;;11.00;64.20;;;;;;6301560;28;20965;-62
2021/04/06 00:04:22;;;;;;;1.50;0.70;;;10.70;63.90;;;;;;6302281;28;20488;-61
2021/04/06 00:07:26;;;;;;;0.40;0.40;;;10.40;66.00;;;;;;6302444;28;20491;-61
2021/04/06 00:10:32;;;;;;;2.00;0.60;;;10.30;68.60;;;;;;6302193;28;20469;-61
2021/04/06 00:13:37;;;;;;;0.93;0.47;;;10.10;68.60;;;;;;6301634;28;20965;-61
2021/04/06 00:16:42;;;;;;;0.50;0.40;;;9.80;70.10;;;;;;6302009;28;20474;-61
2021/04/06 00:19:46;;;;;;;0.77;0.50;;;9.60;70.90;;;;;;6301495;28;20469;-60
2021/04/06 00:22:49;;;;;;;0.60;0.47;;;9.30;70.80;;;;;;6301672;28;20472;-61
2021/04/06 00:25:53;;;;;;;0.80;0.40;;;9.10;72.20;;;;;;6301696;28;20462;-60
2021/04/06 00:28:56;;;;;;;0.40;0.40;;;9.00;71.90;;;;;;6301306;28;20469;-61
2021/04/06 00:32:00;;;;;;;0.40;0.40;;;8.80;72.20;;;;;;6301474;28;20469;-60
2021/04/06 00:35:04;;;;;;;0.60;0.40;;;8.60;71.80;;;;;;6301101;28;20809;-60
2021/04/06 00:38:11;;;;;;;0.40;0.40;;;8.50;71.20;;;;;;6301175;28;20484;-62
2021/04/06 00:41:15;;;;;;;0.47;0.47;;;8.30;72.20;;;;;;6301144;28;20466;-59
2021/04/06 00:44:17;;;;;;;0.50;0.50;;;8.20;70.70;;;;;;6301015;28;20480;-60
2021/04/06 00:47:25;;;;;;;0.73;0.70;;;8.20;73.10;;;;;;6301115;28;20485;-62
2021/04/06 00:50:32;;;;;;;0.50;0.50;;;8.10;72.20;;;;;;6300677;28;20473;-63
2021/04/06 00:53:57;;;;;;;0.40;0.40;;;8.10;73.30;;;;;;6300658;28;20465;-63
2021/04/06 00:57:00;;;;;;;2.10;0.43;;;8.00;72.70;;;;;;6300864;28;20497;-63
2021/04/06 01:00:11;;;;;;;0.40;0.40;;;7.90;71.50;;;;;;6300515;28;20480;-61
2021/04/06 01:03:16;;;;;;;0.43;0.43;;;7.80;72.60;;;;;;6300611;28;20826;-61
2021/04/06 01:06:19;;;;;;;0.40;0.40;;;7.60;72.90;;;;;;6300588;28;20461;-61
2021/04/06 01:09:43;;;;;;;0.50;0.50;;;7.40;72.40;;;;;;6300406;28;20469;-62
2021/04/06 01:12:45;;;;;;;0.60;0.60;;;7.30;73.00;;;;;;6299447;28;20981;-62
2021/04/06 01:15:50;;;;;;;0.93;0.60;;;7.20;72.80;;;;;;6300482;28;20453;-62
2021/04/06 01:18:54;;;;;;;0.57;0.57;;;7.10;74.40;;;;;;6300201;28;20449;-62
2021/04/06 01:21:57;;;;;;;0.60;0.53;;;7.20;72.80;;;;;;6300593;28;20441;-62
2021/04/06 01:25:00;;;;;;;0.50;0.50;;;7.20;71.70;;;;;;6299910;28;20495;-63
2021/04/06 01:28:05;;;;;;;0.60;0.60;;;7.30;69.30;;;;;;6300275;28;20442;-63
2021/04/06 01:31:09;;;;;;;0.50;0.50;;;7.30;69.20;;;;;;6300214;28;20793;-63
2021/04/06 01:34:12;;;;;;;0.60;0.53;;;7.50;66.20;;;;;;6299759;28;20917;-63
2021/04/06 01:37:19;;;;;;;0.50;0.50;;;7.50;64.90;;;;;;6300102;28;20469;-62
2021/04/06 01:40:22;;;;;;;0.53;0.50;;;7.50;64.70;;;;;;6299818;28;20469;-62
2021/04/06 01:43:28;;;;;;;0.60;0.60;;;7.50;62.90;;;;;;6299958;28;20485;-62
2021/04/06 01:46:37;;;;;;;0.50;0.50;;;7.50;61.10;;;;;;6299804;28;20816;-61
2021/04/06 01:49:40;;;;;;;0.80;0.70;;;7.60;62.00;;;;;;6299901;28;20509;-60
2021/04/06 01:52:47;;;;;;;0.40;0.40;;;7.50;57.60;;;;;;6290199;28;20473;-61
2021/04/06 01:55:55;;;;;;;0.40;0.40;;;7.50;57.60;;;;;;6299895;28;20481;-62
2021/04/06 01:59:01;;;;;;;0.90;0.50;;;7.50;56.80;;;;;;6299611;28;20484;-62
2021/04/06 02:02:04;;;;;;;0.83;0.60;;;7.60;54.70;;;;;;6300208;28;20470;-61
2021/04/06 02:05:10;;;;;;;2.20;0.60;;;7.60;53.50;;;;;;6299658;28;20599;-59
2021/04/06 02:08:19;;;;;;;0.50;0.50;;;7.40;53.40;;;;;;6299384;28;20544;-60
2021/04/06 02:11:24;;;;;;;0.40;0.40;;;7.50;52.60;;;;;;6299600;28;20482;-60
2021/04/06 02:14:26;;;;;;;0.40;0.40;;;7.50;52.90;;;;;;6299598;28;20474;-61
2021/04/06 02:17:29;;;;;;;0.40;0.40;;;7.50;53.50;;;;;;6299498;28;20481;-60
2021/04/06 02:20:32;;;;;;;6.33;0.60;;;7.40;53.00;;;;;;6299657;28;20472;-60
2021/04/06 02:23:39;;;;;;;0.60;0.50;;;7.30;53.30;;;;;;6299576;28;20461;-60
2021/04/06 02:26:42;;;;;;;1.63;0.50;;;7.00;54.30;;;;;;6304591;28;20967;-61
2021/04/06 02:29:47;;;;;;;1.17;0.50;;;7.00;54.30;;;;;;6303998;28;20982;-60
2021/04/06 02:32:53;;;;;;;1.43;0.57;;;7.00;54.80;;;;;;6304003;28;20473;-61
2021/04/06 02:35:58;;;;;;;0.50;0.50;;;7.00;54.70;;;;;;6304132;28;20465;-62
2021/04/06 02:39:00;;;;;;;0.40;0.40;;;6.90;55.00;;;;;;6304140;28;20472;-60
2021/04/06 02:42:27;;;;;;;0.60;0.60;;;6.90;54.40;;;;;;6303894;28;20472;-60
2021/04/06 02:45:30;;;;;;;0.50;0.50;;;6.80;54.90;;;;;;6303840;28;20476;-62
2021/04/06 02:48:34;;;;;;;1.33;0.53;;;6.70;55.20;;;;;;6303821;28;20492;-61
2021/04/06 02:51:36;;;;;;;1.20;0.60;;;6.60;55.60;;;;;;6303497;28;20481;-60
2021/04/06 02:54:38;;;;;;;0.40;0.40;;;6.50;57.40;;;;;;6303628;28;20487;-60
2021/04/06 02:57:43;;;;;;;0.60;0.60;;;6.40;57.10;;;;;;6294604;28;20473;-60
2021/04/06 03:00:45;;;;;;;0.80;0.63;;;6.20;58.10;;;;;;6303221;28;20972;-60
2021/04/06 03:03:47;;;;;;;1.43;0.50;;;6.10;58.00;;;;;;6303153;28;20472;-60
2021/04/06 03:06:51;;;;;;;1.00;0.60;;;6.00;57.20;;;;;;6278190;28;20481;-61
2021/04/06 03:09:55;;;;;;;0.90;0.60;;;6.00;58.10;;;;;;6278298;28;20434;-61
2021/04/06 03:13:05;;;;;;;1.30;0.70;;;5.90;59.20;;;;;;6278865;28;20476;-59
2021/04/06 03:16:09;;;;;;;0.50;0.50;;;5.90;58.60;;;;;;6278391;28;20422;-60
2021/04/06 03:19:11;;;;;;;1.00;1.00;;;5.90;57.80;;;;;;6278495;28;20469;-61
2021/04/06 03:22:14;;;;;;;0.60;0.60;;;5.90;57.00;;;;;;6277983;28;20929;-60
2021/04/06 03:25:17;;;;;;;0.87;0.80;;;5.90;55.50;;;;;;6278450;28;20481;-63
2021/04/06 03:28:20;;;;;;;0.77;0.63;;;6.00;55.80;;;;;;6278393;28;20469;-60
2021/04/06 03:31:22;;;;;;;0.60;0.60;;;6.00;54.40;;;;;;6277968;28;20802;-60
2021/04/06 03:34:31;;;;;;;0.77;0.60;;;6.00;53.60;;;;;;6277811;28;20954;-61
2021/04/06 03:37:35;;;;;;;0.80;0.60;;;6.10;53.10;;;;;;6277309;28;20463;-60
2021/04/06 03:40:38;;;;;;;0.97;0.70;;;6.00;52.30;;;;;;6277543;28;20540;-60
2021/04/06 03:43:42;;;;;;;1.80;0.73;;;5.80;52.20;;;;;;6277290;28;20470;-60
2021/04/06 03:46:54;;;;;;;0.87;0.87;;;5.70;51.60;;;;;;6277364;28;20554;-61
2021/04/06 03:49:57;;;;;;;0.70;0.70;;;5.60;51.10;;;;;;6277741;28;20473;-61
2021/04/06 03:53:00;;;;;;;1.20;0.57;;;5.40;50.90;;;;;;6277343;28;20548;-60
2021/04/06 03:56:04;;;;;;;1.03;0.60;;;5.40;51.50;;;;;;6277601;28;20806;-61
2021/04/06 03:59:10;;;;;;;0.70;0.70;;;5.50;50.60;;;;;;6277493;28;20580;-62
2021/04/06 04:02:12;;;;;;;1.67;0.97;;;5.50;50.30;;;;;;6277221;28;20818;-61
2021/04/06 04:05:15;;;;;;;0.67;0.67;;;5.50;50.40;;;;;;6277358;28;20479;-61
2021/04/06 04:08:17;;;;;;;1.07;0.70;;;5.30;50.30;;;;;;6277500;28;20474;-61
2021/04/06 04:11:19;;;;;;;0.70;0.70;;;5.40;50.10;;;;;;6277191;28;20481;-61
2021/04/06 04:14:25;;;;;;;0.80;0.60;;;5.40;50.50;;;;;;6276949;28;20478;-61
2021/04/06 04:17:27;;;;;;;0.70;0.70;;;5.50;50.80;;;;;;6277135;28;20476;-61
2021/04/06 04:20:29;;;;;;;0.60;0.60;;;5.70;50.50;;;;;;6277227;28;20479;-60
2021/04/06 04:23:32;;;;;;;2.90;0.90;;;5.70;49.50;;;;;;6276761;28;20489;-60
2021/04/06 04:26:35;;;;;;;0.90;0.80;;;5.60;48.30;;;;;;6276635;28;20479;-60
2021/04/06 04:29:38;;;;;;;0.73;0.73;;;5.50;48.90;;;;;;6276409;28;20961;-61
2021/04/06 04:32:41;;;;;;;3.47;0.90;;;5.40;48.60;;;;;;6276275;28;21077;-61
2021/04/06 04:35:43;;;;;;;1.87;0.63;;;5.40;49.00;;;;;;6276906;28;20470;-61
2021/04/06 04:38:48;;;;;;;0.93;0.70;;;5.30;48.20;;;;;;6276418;28;20474;-60
2021/04/06 04:41:52;;;;;;;0.90;0.90;;;5.30;48.10;;;;;;6276266;28;20489;-61
2021/04/06 04:44:55;;;;;;;2.90;0.80;;;5.40;47.80;;;;;;6276256;28;20474;-61
2021/04/06 04:47:57;;;;;;;0.70;0.70;;;5.40;47.60;;;;;;6276289;28;20485;-61
2021/04/06 04:50:59;;;;;;;0.70;0.70;;;5.50;47.20;;;;;;6275974;28;20486;-60
2021/04/06 04:54:02;;;;;;;0.90;0.60;;;5.50;46.60;;;;;;6275971;28;20549;-62
2021/04/06 04:57:05;;;;;;;1.87;1.03;;;5.60;46.70;;;;;;6276362;28;20466;-61
2021/04/06 05:00:12;;;;;;;0.80;0.80;;;5.70;47.00;;;;;;6275782;28;20988;-61
2021/04/06 05:03:14;;;;;;;0.70;0.70;;;5.70;46.20;;;;;;6262147;28;20493;-61
2021/04/06 05:06:16;;;;;;;0.77;0.60;;;5.70;46.10;;;;;;6276061;28;20489;-60
2021/04/06 05:09:18;;;;;;;0.80;0.80;;;5.80;44.50;;;;;;6275705;28;20471;-60
2021/04/06 05:12:21;;;;;;;1.87;1.30;;;5.80;44.40;;;;;;6275507;28;20470;-60
2021/04/06 05:15:25;;;;;;;0.80;0.80;;;5.80;44.00;;;;;;6275425;28;20852;-62
2021/04/06 05:18:27;;;;;;;1.37;0.97;;;5.80;43.70;;;;;;6275479;28;20466;-62
2021/04/06 05:21:29;;;;;;;1.10;1.00;;;5.80;42.70;;;;;;6275814;28;20481;-62
2021/04/06 05:24:31;;;;;;;0.90;0.90;;;5.70;42.50;;;;;;6275375;28;20466;-63
2021/04/06 05:27:34;;;;;;;0.93;0.83;;;5.50;43.10;;;;;;6275149;28;20484;-60
2021/04/06 05:30:37;;;;;;;2.23;1.53;;;5.60;41.90;;;;;;6274962;28;20483;-60
2021/04/06 05:33:39;;;;;;;2.30;0.80;;;5.50;42.20;;;;;;6275147;28;20478;-60
2021/04/06 05:36:43;;;;;;;0.90;0.90;;;5.50;42.00;;;;;;6274903;28;20466;-63
2021/04/06 05:39:45;;;;;;;3.67;1.13;;;5.60;41.80;;;;;;6274910;28;20478;-62
2021/04/06 05:42:48;;;;;;;1.73;1.10;;;5.60;41.70;;;;;;6274297;28;20478;-63
2021/04/06 05:45:53;;;;;;;0.87;0.87;;;5.50;42.30;;;;;;6273637;28;20472;-62
2021/04/06 05:48:59;;;;;;;3.07;1.07;;;5.70;42.50;;;;;;6273067;28;20532;-61
2021/04/06 05:52:04;;;;;;;0.70;0.70;;;5.80;42.40;;;;;;6272348;28;20474;-61
2021/04/06 05:55:08;;;;;;;1.67;0.80;;;6.00;41.10;;;;;;6272287;28;20952;-61
2021/04/06 05:58:10;;;;;;;0.73;0.73;;;6.10;41.20;;;;;;6272923;28;20462;-62
2021/04/06 06:01:13;;;;;;;1.80;0.97;;;6.20;40.80;;;;;;6274140;28;20780;-61
2021/04/06 06:04:17;;;;;;;0.80;0.80;;;6.20;39.20;;;;;;6270077;28;20812;-61
2021/04/06 06:07:20;;;;;;;1.00;0.73;;;6.30;39.20;;;;;;6274631;28;20462;-61
2021/04/06 06:10:30;;;;;;;0.80;0.80;;;6.30;39.30;;;;;;6272730;28;20468;-61
2021/04/06 06:13:35;;;;;;;0.83;0.77;;;6.30;39.00;;;;;;6272583;28;20724;-61
2021/04/06 06:16:39;;;;;;;0.70;0.70;;;6.20;39.10;;;;;;6272391;28;20817;-61
2021/04/06 06:19:42;;;;;;;5.30;1.40;;;6.20;39.40;;;;;;6272277;28;20824;-60
2021/04/06 06:22:44;;;;;;;1.00;0.80;;;6.30;39.50;;;;;;6272063;28;20474;-61
2021/04/06 06:26:14;;;;;;;0.97;0.73;;;6.40;39.00;;;;;;6274366;28;20473;-61
2021/04/06 06:29:19;;;;;;;0.90;0.90;;;6.40;38.90;;;;;;6268792;28;20467;-61
2021/04/06 06:32:23;;;;;;;1.87;0.80;;;6.50;38.40;;;;;;6274506;28;20531;-61
2021/04/06 06:35:35;;;;;;;1.00;0.80;;;6.60;37.40;;;;;;6274536;28;20498;-61
2021/04/06 06:38:39;;;;;;;8.60;1.20;;;6.70;36.90;;;;;;6274322;28;20469;-61
2021/04/06 06:41:57;;;;;;;1.63;1.20;;;6.80;36.80;;;;;;6274122;28;20478;-61
2021/04/06 06:45:00;;;;;;;1.30;0.90;;;6.90;36.40;;;;;;6273982;28;20471;-61
2021/04/06 06:48:04;;;;;;;1.67;0.93;;;7.00;36.20;;;;;;6273805;28;20476;-61
2021/04/06 06:51:11;;;;;;;1.70;1.00;;;7.10;35.40;;;;;;6273520;28;20489;-61
2021/04/06 06:54:13;;;;;;;0.93;0.90;;;7.10;35.10;;;;;;6273873;28;20474;-61
2021/04/06 06:57:16;;;;;;;0.90;0.70;;;7.00;34.00;;;;;;6274173;28;20477;-61
2021/04/06 07:00:21;;;;;;;0.90;0.80;;;7.00;33.80;;;;;;6273906;28;20481;-61
2021/04/06 07:03:24;;;;;;;1.20;0.70;;;7.00;34.10;;;;;;6272988;28;20553;-61
2021/04/06 07:06:26;;;;;;;1.83;0.63;;;7.10;34.40;;;;;;6273021;28;20981;-61
2021/04/06 07:09:30;;;;;;;1.70;0.93;;;7.20;32.60;;;;;;6262064;28;20474;-61
2021/04/06 07:12:33;;;;;;;1.20;1.10;;;7.20;33.10;;;;;;6277053;28;20807;-61
2021/04/06 07:15:41;;;;;;;0.80;0.80;;;7.10;32.10;;;;;;6278155;28;20874;-61
2021/04/06 07:18:44;;;;;;;3.50;0.90;;;7.20;32.30;;;;;;6277903;28;20549;-62
2021/04/06 07:21:47;;;;;;;1.93;1.40;;;7.20;32.60;;;;;;6265416;28;20470;-61
2021/04/06 07:25:11;;;;;;;1.83;1.10;;;7.10;32.10;;;;;;6266804;28;20463;-61
2021/04/06 07:28:16;;;;;;;3.50;2.93;;;7.10;32.00;;;;;;6260583;28;20473;-60
2021/04/06 07:31:19;;;;;;;1.80;1.30;;;7.20;31.40;;;;;;6282682;28;21022;-60
2021/04/06 07:34:24;;;;;;;1.17;1.07;;;7.40;30.40;;;;;;6255150;28;20526;-62
2021/04/06 07:37:27;;;;;;;1.03;0.93;;;7.60;30.50;;;;;;6278008;28;20476;-61
2021/04/06 07:40:37;;;;;;;2.10;1.20;;;8.00;31.20;;;;;;6277828;28;20461;-60
2021/04/06 07:43:39;;;;;;;2.20;1.37;;;8.30;30.40;;;;;;6277647;28;20476;-59
2021/04/06 07:46:44;;;;;;;2.20;1.03;;;8.30;29.40;;;;;;6277240;28;20476;-63
2021/04/06 07:49:48;;;;;;;1.83;1.00;;;8.00;29.40;;;;;;6277790;28;20463;-62
2021/04/06 07:53:25;;;;;;;3.33;1.23;;;7.60;29.40;;;;;;6276881;28;20478;-60
2021/04/06 07:56:51;;;;;;;0.90;0.90;;;7.40;29.90;;;;;;6277594;28;20969;-61
2021/04/06 07:59:55;;;;;;;1.97;1.67;;;7.30;30.00;;;;;;6277079;28;20552;-61
2021/04/06 08:02:57;;;;;;;1.60;1.27;;;7.30;30.70;;;;;;6277270;28;20471;-61
2021/04/06 08:06:20;;;;;;;1.33;0.90;;;7.20;29.90;;;;;;6276737;28;20485;-62
2021/04/06 08:09:44;;;;;;;1.83;1.73;;;7.10;30.00;;;;;;6277071;28;20479;-62
2021/04/06 08:12:48;;;;;;;3.23;1.93;;;6.80;48.80;;;;;;6267848;28;20597;-62
2021/04/06 08:16:11;;;;;;;2.30;1.53;;;6.50;59.10;;;;;;6276111;28;20612;-60
2021/04/06 08:19:13;;;;;;;1.87;1.70;;;6.40;61.30;;;;;;6276599;28;20510;-60
2021/04/06 08:22:19;;;;;;;2.63;1.77;;;6.50;62.10;;;;;;6276380;28;20474;-61
2021/04/06 08:25:44;;;;;;;3.47;1.57;;;6.50;62.30;;;;;;6276501;28;20466;-62
2021/04/06 08:28:47;;;;;;;1.73;1.63;;;6.10;64.60;;;;;;6268521;28;20873;-62
2021/04/06 08:32:11;;;;;;;2.20;2.00;;;6.10;66.40;;;;;;6276661;28;20474;-62
2021/04/06 08:35:13;;;;;;;2.80;1.77;;;6.10;68.60;;;;;;6276045;28;20479;-62
2021/04/06 08:38:44;;;;;;;8.73;2.10;;;5.90;69.70;;;;;;6276210;28;20474;-61
2021/04/06 08:41:47;;;;;;;3.57;1.83;;;5.50;71.40;;;;;;6276211;28;20470;-62
2021/04/06 08:44:56;;;;;;;2.27;2.07;;;5.50;73.50;;;;;;6264339;28;20482;-63
2021/04/06 08:47:58;;;;;;;2.10;1.80;;;5.60;74.70;;;;;;6270581;28;20490;-61
2021/04/06 08:51:01;;;;;;;3.20;2.10;;;5.80;74.40;;;;;;6275663;28;21000;-62
2021/04/06 08:54:06;;;;;;;1.83;1.73;;;5.90;75.00;;;;;;6263829;28;20481;-62
2021/04/06 08:57:09;;;;;;;2.07;1.80;;;6.00;74.90;;;;;;6265500;28;20477;-62
2021/04/06 09:00:14;;;;;;;2.57;1.60;;;5.80;75.60;;;;;;6275442;28;20584;-62
2021/04/06 09:03:16;;;;;;;2.10;1.40;;;6.00;73.70;;;;;;6275661;28;20478;-62
2021/04/06 09:06:19;;;;;;;3.47;2.30;;;6.30;71.90;;;;;;6275062;28;20485;-62
2021/04/06 09:09:24;;;;;;;2.40;2.00;;;7.10;69.20;;;;;;6273940;28;20489;-62
2021/04/06 09:12:27;;;;;;;2.87;1.67;;;8.20;64.50;;;;;;6273737;28;20577;-63
2021/04/06 09:15:29;;;;;;;3.40;1.47;;;8.90;60.90;;;;;;6271446;28;20815;-64
2021/04/06 09:18:36;;;;;;;3.53;1.67;;;10.20;56.20;;;;;;6275192;28;20992;-59
2021/04/06 09:21:40;;;;;;;1.97;1.57;;;10.30;52.50;;;;;;6275178;28;20474;-59
2021/04/06 09:24:44;;;;;;;2.17;1.30;;;10.90;52.10;;;;;;6275044;28;20474;-59
2021/04/06 09:27:49;;;;;;;1.63;1.20;;;11.60;48.90;;;;;;6274890;28;20493;-59
2021/04/06 09:30:51;;;;;;;3.97;1.30;;;10.90;48.40;;;;;;6298897;28;20563;-60
2021/04/06 09:34:03;;;;;;;2.07;1.10;;;10.40;50.60;;;;;;6299258;28;20466;-60
2021/04/06 09:37:07;;;;;;;1.33;1.23;;;10.80;47.90;;;;;;6299016;28;20426;-60
2021/04/06 09:40:12;;;;;;;1.37;1.27;;;11.10;47.40;;;;;;6299087;28;20437;-60
2021/04/06 09:43:15;;;;;;;2.50;1.40;;;11.20;46.00;;;;;;6298609;28;20473;-60
2021/04/06 09:46:18;;;;;;;5.10;1.50;;;11.20;46.60;;;;;;6295647;28;20807;-62
2021/04/06 09:49:21;;;;;;;2.70;1.50;;;10.70;47.80;;;;;;6299118;28;20522;-62
2021/04/06 09:52:34;;;;;;;1.27;1.17;;;10.70;47.40;;;;;;6297396;28;20461;-61
2021/04/06 09:55:38;;;;;;;1.53;1.43;;;10.40;46.10;;;;;;6292946;28;20474;-63
2021/04/06 09:58:40;;;;;;;1.70;1.60;;;10.20;47.90;;;;;;6274489;28;20481;-62
2021/04/06 10:01:49;;;;;;;1.47;1.30;;;10.30;47.60;;;;;;6274638;28;20470;-63
2021/04/06 10:04:52;;;;;;;5.63;1.60;;;9.80;48.80;;;;;;6274059;28;20482;-63
2021/04/06 10:07:55;;;;;;;3.17;1.87;;;9.20;50.50;;;;;;6272389;28;20501;-63
2021/04/06 10:10:58;;;;;;;3.70;1.77;;;8.30;51.60;;;;;;6272408;28;20541;-63
2021/04/06 10:14:00;;;;;;;2.70;1.80;;;8.20;52.40;;;;;;6269011;28;20852;-63
2021/04/06 10:17:04;;;;;;;2.00;1.80;;;8.40;51.80;;;;;;6272497;28;20855;-63
2021/04/06 10:20:11;;;;;;;1.93;1.70;;;8.20;52.10;;;;;;6274476;28;20524;-62
2021/04/06 10:23:30;;;;;;;8.60;1.77;;;8.40;52.80;;;;;;6274745;28;20867;-61
2021/04/06 10:26:33;;;;;;;1.20;1.20;;;8.70;53.10;;;;;;6273108;28;20474;-62
2021/04/06 10:29:36;;;;;;;2.20;2.07;;;8.70;52.00;;;;;;6273403;28;20481;-60
2021/04/06 10:32:41;;;;;;;2.10;1.40;;;8.80;51.50;;;;;;6274544;28;20474;-62
2021/04/06 10:35:46;;;;;;;2.30;1.77;;;9.40;50.20;;;;;;6274240;28;20946;-59
2021/04/06 10:38:48;;;;;;;1.43;1.33;;;9.90;48.90;;;;;;6274375;28;20481;-59
2021/04/06 10:41:52;;;;;;;2.73;1.67;;;9.90;44.40;;;;;;6272554;28;20478;-61
2021/04/06 10:44:57;;;;;;;1.93;1.70;;;10.10;43.80;;;;;;6274179;28;20485;-61
2021/04/06 10:48:10;;;;;;;2.43;1.57;;;10.20;43.30;;;;;;6266838;28;20481;-62
2021/04/06 10:51:15;;;;;;;2.00;1.40;;;10.10;43.60;;;;;;6265786;28;20478;-64
2021/04/06 10:54:17;;;;;;;1.50;1.40;;;10.00;45.30;;;;;;6278329;28;20470;-64
2021/04/06 10:57:30;;;;;;;2.20;1.37;;;9.90;44.70;;;;;;6278608;28;20987;-64
2021/04/06 11:00:56;;;;;;;3.37;1.93;;;9.20;47.10;;;;;;6278266;28;20608;-63
2021/04/06 11:04:01;;;;;;;2.67;1.50;;;9.10;47.50;;;;;;6279052;28;20465;-62
2021/04/06 11:07:06;;;;;;;3.03;2.17;;;9.40;46.20;;;;;;6278556;28;20426;-64
2021/04/06 11:10:09;;;;;;;3.07;1.83;;;9.60;45.50;;;;;;6276709;28;20800;-65
2021/04/06 11:13:12;;;;;;;2.80;1.87;;;10.00;44.90;;;;;;6276013;28;20953;-65
2021/04/06 11:16:15;;;;;;;2.13;1.93;;;10.00;45.20;;;;;;6277806;28;20458;-64
2021/04/06 11:19:22;;;;;;;1.77;1.67;;;10.10;44.70;;;;;;6277772;28;20972;-65
2021/04/06 11:22:24;;;;;;;3.50;1.83;;;10.10;46.50;;;;;;6266677;28;20467;-65
2021/04/06 11:25:27;;;;;;;1.90;1.70;;;10.30;46.10;;;;;;6276919;28;20604;-64
2021/04/06 11:28:30;;;;;;;4.30;2.17;;;10.30;44.50;;;;;;6277696;28;20477;-63
2021/04/06 11:31:33;;;;;;;1.70;1.57;;;10.60;44.20;;;;;;6271983;28;20477;-63
2021/04/06 11:34:36;;;;;;;1.80;1.70;;;10.70;43.80;;;;;;6277472;28;20474;-63
2021/04/06 11:37:38;;;;;;;1.73;1.40;;;10.60;44.50;;;;;;6263712;28;20463;-63
2021/04/06 11:40:40;;;;;;;1.97;1.77;;;10.70;44.20;;;;;;6263679;28;20981;-64
2021/04/06 11:43:43;;;;;;;3.13;1.60;;;10.80;43.30;;;;;;6277233;28;20813;-63
2021/04/06 11:46:47;;;;;;;2.20;2.00;;;10.60;42.30;;;;;;6275874;28;20478;-65
2021/04/06 11:49:49;;;;;;;1.90;1.80;;;8.80;48.70;;;;;;6277466;28;20470;-65
2021/04/06 11:52:51;;;;;;;2.63;1.70;;;8.10;50.50;;;;;;6277316;28;20466;-64
2021/04/06 11:55:54;;;;;;;1.73;1.63;;;8.60;51.50;;;;;;6277598;28;20466;-65
2021/04/06 11:58:57;;;;;;;2.20;1.93;;;8.90;51.10;;;;;;6261884;28;20474;-65
2021/04/06 12:02:02;;;;;;;2.07;1.93;;;8.90;51.40;;;;;;6277191;28;20477;-64
2021/04/06 12:05:05;;;;;;;1.93;1.80;;;8.70;51.50;;;;;;6276801;28;20474;-63
2021/04/06 12:08:08;;;;;;;2.00;1.60;;;8.70;51.20;;;;;;6277415;28;20474;-63
2021/04/06 12:11:10;;;;;;;2.77;2.47;;;8.50;51.40;;;;;;6269672;28;20474;-61
2021/04/06 12:14:13;;;;;;;1.80;1.70;;;8.70;51.30;;;;;;6273190;28;20485;-63
2021/04/06 12:17:16;;;;;;;1.93;1.77;;;9.20;50.30;;;;;;6274154;28;20557;-62
2021/04/06 12:20:18;;;;;;;2.93;1.90;;;9.60;48.60;;;;;;6264945;28;20520;-60
2021/04/06 12:23:20;;;;;;;2.60;2.10;;;9.60;47.80;;;;;;6276334;28;20810;-61
2021/04/06 12:26:25;;;;;;;2.27;1.83;;;9.60;47.60;;;;;;6276711;28;20492;-61
2021/04/06 12:29:28;;;;;;;3.10;2.17;;;9.70;47.60;;;;;;6276441;28;20796;-61
2021/04/06 12:32:30;;;;;;;2.70;1.70;;;9.60;47.70;;;;;;6276707;28;20469;-61
2021/04/06 12:35:32;;;;;;;2.10;1.60;;;9.90;47.50;;;;;;6276535;28;20477;-60
2021/04/06 12:38:36;;;;;;;2.40;2.20;;;10.00;45.80;;;;;;6275818;28;20964;-60
2021/04/06 12:41:39;;;;;;;2.73;2.20;;;10.50;45.00;;;;;;6276629;28;20503;-60
2021/04/06 12:44:42;;;;;;;3.23;2.20;;;11.00;44.20;;;;;;6276033;28;20485;-61
2021/04/06 12:47:45;;;;;;;2.00;1.90;;;10.40;43.80;;;;;;6251088;28;20556;-62
2021/04/06 12:50:47;;;;;;;2.50;1.77;;;10.40;44.40;;;;;;6261739;28;20485;-61
2021/04/06 12:53:51;;;;;;;1.97;1.87;;;9.90;45.10;;;;;;6267104;28;20497;-62
2021/04/06 12:56:56;;;;;;;3.20;2.10;;;10.00;45.20;;;;;;6269694;28;20475;-61
2021/04/06 12:59:59;;;;;;;2.20;2.00;;;10.40;43.80;;;;;;6251025;28;20467;-61
2021/04/06 13:03:01;;;;;;;3.13;1.90;;;10.10;43.00;;;;;;6251001;28;20479;-62
2021/04/06 13:06:04;;;;;;;2.50;1.93;;;9.80;44.60;;;;;;6262293;28;20808;-61
2021/04/06 13:09:07;;;;;;;3.03;1.83;;;9.90;45.00;;;;;;6274381;28;20680;-61
2021/04/06 13:12:10;;;;;;;6.33;2.20;;;9.70;45.10;;;;;;6275712;28;20475;-61
2021/04/06 13:15:14;;;;;;;2.60;1.97;;;9.30;45.50;;;;;;6275203;28;20474;-62
2021/04/06 13:18:17;;;;;;;4.03;2.17;;;9.10;46.00;;;;;;6274152;28;20790;-62
2021/04/06 13:21:19;;;;;;;3.07;1.83;;;8.60;46.90;;;;;;6275655;28;20458;-61
2021/04/06 13:24:21;;;;;;;2.27;2.10;;;8.30;47.80;;;;;;6254121;28;20997;-61
2021/04/06 13:27:24;;;;;;;3.10;2.00;;;8.00;48.80;;;;;;6255302;28;20458;-62
2021/04/06 13:30:27;;;;;;;7.20;4.20;;;7.90;49.10;;;;;;6275022;28;20485;-61
2021/04/06 13:33:30;;;;;;;4.30;2.37;;;7.50;49.10;;;;;;6274860;28;20822;-61
2021/04/06 13:36:32;;;;;;;3.00;2.70;;;7.20;49.60;;;;;;6275158;28;20481;-62
2021/04/06 13:39:36;;;;;;;4.53;2.00;;;7.40;50.20;;;;;;6272806;28;20477;-61
2021/04/06 13:42:39;;;;;;;2.70;2.50;;;7.40;50.50;;;;;;6274574;28;20470;-60
2021/04/06 13:45:42;;;;;;;2.53;2.33;;;7.70;50.70;;;;;;6274905;28;20476;-61
2021/04/06 13:48:44;;;;;;;2.87;2.67;;;7.80;50.90;;;;;;6274376;28;20839;-61
2021/04/06 13:51:46;;;;;;;2.93;2.73;;;7.80;51.10;;;;;;6274961;28;20474;-61
2021/04/06 13:54:49;;;;;;;3.40;3.00;;;7.70;52.30;;;;;;6274844;28;20487;-61
2021/04/06 13:57:52;;;;;;;3.30;3.10;;;7.20;52.90;;;;;;6274222;28;20484;-62
2021/04/06 14:00:56;;;;;;;2.60;2.40;;;7.20;53.20;;;;;;6272373;28;20508;-62
2021/04/06 14:03:58;;;;;;;2.70;2.50;;;7.30;53.50;;;;;;6272557;28;20516;-61
2021/04/06 14:07:00;;;;;;;3.73;3.40;;;7.70;53.50;;;;;;6271113;28;20445;-60
2021/04/06 14:10:05;;;;;;;2.80;2.60;;;7.40;53.40;;;;;;6262090;28;20489;-61
2021/04/06 14:13:09;;;;;;;3.57;3.00;;;7.60;53.30;;;;;;6260758;28;20562;-61
2021/04/06 14:16:12;;;;;;;3.33;3.00;;;7.60;52.60;;;;;;6272208;28;20438;-62
2021/04/06 14:19:14;;;;;;;3.23;2.80;;;7.60;52.50;;;;;;6271666;28;21122;-61
2021/04/06 14:22:17;;;;;;;3.57;3.00;;;7.50;51.90;;;;;;6275931;28;20481;-61
2021/04/06 14:25:25;;;;;;;4.60;4.07;;;7.50;51.70;;;;;;6272470;28;20477;-61
2021/04/06 14:28:28;;;;;;;3.20;2.90;;;7.40;52.00;;;;;;6277494;28;20987;-61
2021/04/06 14:31:31;;;;;;;3.70;3.40;;;7.40;51.40;;;;;;6279439;28;20470;-60
2021/04/06 14:34:33;;;;;;;3.50;3.20;;;7.20;51.20;;;;;;6278262;28;20549;-61
2021/04/06 14:37:36;;;;;;;3.63;3.00;;;7.30;51.60;;;;;;6278923;28;20561;-61
2021/04/06 14:40:39;;;;;;;5.30;3.33;;;7.00;51.10;;;;;;6278547;28;20466;-61
2021/04/06 14:43:41;;;;;;;5.67;3.37;;;7.10;51.30;;;;;;6275738;28;20497;-60
2021/04/06 14:46:45;;;;;;;2.83;2.63;;;7.20;51.60;;;;;;6278577;28;20459;-60
2021/04/06 14:49:47;;;;;;;7.77;3.53;;;7.30;51.60;;;;;;6278706;28;20476;-60
2021/04/06 14:52:49;;;;;;;5.77;2.87;;;7.40;51.50;;;;;;6278820;28;20493;-61
2021/04/06 14:55:52;;;;;;;6.03;3.83;;;7.40;50.70;;;;;;6279101;28;20466;-60
2021/04/06 14:58:56;;;;;;;3.40;3.10;;;7.40;51.20;;;;;;6278950;28;20477;-61
2021/04/06 15:02:00;;;;;;;6.97;3.73;;;7.30;51.10;;;;;;6279112;28;20481;-61
2021/04/06 15:05:02;;;;;;;4.47;2.90;;;7.20;50.90;;;;;;6279014;28;20506;-61
2021/04/06 15:08:08;;;;;;;2.47;2.27;;;7.30;50.50;;;;;;6279038;28;20788;-61
2021/04/06 15:11:11;;;;;;;2.90;2.70;;;7.30;49.80;;;;;;6278898;28;20454;-61
2021/04/06 15:14:15;;;;;;;3.33;2.63;;;7.10;49.70;;;;;;6271319;28;20489;-61
2021/04/06 15:17:20;;;;;;;3.33;3.03;;;7.00;49.80;;;;;;6254234;28;20593;-61
2021/04/06 15:20:22;;;;;;;2.77;2.50;;;6.90;49.80;;;;;;6254105;28;20487;-61
2021/04/06 15:23:26;;;;;;;6.07;3.07;;;6.90;50.20;;;;;;6271876;28;20481;-61
2021/04/06 15:26:28;;;;;;;6.10;2.93;;;6.80;50.10;;;;;;6278223;28;20958;-61
2021/04/06 15:29:31;;;;;;;3.87;2.40;;;6.70;50.70;;;;;;6273574;28;20471;-62
2021/04/06 15:32:34;;;;;;;3.57;2.47;;;6.60;51.40;;;;;;6266518;28;20567;-62
2021/04/06 15:35:39;;;;;;;3.47;3.17;;;6.50;51.90;;;;;;6260981;28;20462;-62
2021/04/06 15:38:42;;;;;;;6.10;3.10;;;6.30;52.50;;;;;;6277669;28;20956;-61
2021/04/06 15:41:44;;;;;;;5.67;3.53;;;6.40;52.60;;;;;;6253741;28;20486;-61
2021/04/06 15:44:47;;;;;;;6.63;3.10;;;6.40;52.80;;;;;;6252817;28;20831;-61
2021/04/06 15:47:50;;;;;;;4.00;3.70;;;6.30;52.50;;;;;;6255715;28;20477;-61
2021/04/06 15:50:55;;;;;;;4.27;3.20;;;6.30;52.50;;;;;;6269863;28;20471;-63
2021/04/06 15:54:08;;;;;;;3.30;3.00;;;6.30;52.80;;;;;;6251881;28;20475;-64
2021/04/06 15:57:11;;;;;;;3.27;3.03;;;6.30;52.50;;;;;;6252485;28;20964;-62
2021/04/06 16:00:14;;;;;;;3.70;3.40;;;6.30;52.40;;;;;;6252505;28;20473;-62
2021/04/06 16:03:20;;;;;;;4.20;2.73;;;6.30;52.10;;;;;;6243014;28;20584;-62
2021/04/06 16:06:23;;;;;;;3.37;3.07;;;6.30;52.50;;;;;;6261268;28;20481;-61
2021/04/06 16:09:25;;;;;;;3.67;2.70;;;6.20;52.10;;;;;;6276274;28;20478;-62
2021/04/06 16:12:28;;;;;;;3.77;2.80;;;6.30;52.00;;;;;;6276711;28;20474;-60